createdAt,value
2022-09-16T00:01:20.254Z,98858.91
2022-09-16T00:03:48.580Z,98849.78
2022-09-16T00:06:27.780Z,98861.19
2022-09-16T00:08:57.051Z,98856.88
2022-09-16T00:11:24.749Z,98861.38
2022-09-16T00:13:52.616Z,98868.31
2022-09-16T00:16:25.990Z,98861.28
2022-09-16T00:18:55.495Z,98881.47
2022-09-16T00:21:24.238Z,98879.63
2022-09-16T00:23:51.765Z,98866.03
2022-09-16T00:26:19.756Z,98865.41
2022-09-16T00:28:50.997Z,98858.69
2022-09-16T00:31:21.227Z,98868.75
2022-09-16T00:33:49.833Z,98875.44
2022-09-16T00:36:19.613Z,98869.25
2022-09-16T00:38:51.274Z,98874.88
2022-09-16T00:41:33.451Z,98885.91
2022-09-16T00:44:06.127Z,98893.25
2022-09-16T00:46:40.143Z,98898.16
2022-09-16T00:49:13.255Z,98902.41
2022-09-16T00:51:42.242Z,98917.09
2022-09-16T00:54:10.182Z,98914.97
2022-09-16T00:56:39.465Z,98916.78
2022-09-16T00:59:28.702Z,98910.09
2022-09-16T01:02:00.916Z,98891.75
2022-09-16T01:04:39.513Z,98882.22
2022-09-16T01:07:06.951Z,98872.84
2022-09-16T01:09:34.840Z,98880.72
2022-09-16T01:12:05.467Z,98876.88
2022-09-16T01:14:51.545Z,98899.81
2022-09-16T01:17:34.726Z,98906.47
2022-09-16T01:20:39.896Z,98909.03
2022-09-16T01:23:26.201Z,98915.91
2022-09-16T01:26:12.658Z,98911.91
2022-09-16T01:28:49.499Z,98907.97
2022-09-16T01:31:39.106Z,98912.50
2022-09-16T01:34:45.556Z,98907.00
2022-09-16T01:37:22.205Z,98897.16
2022-09-16T01:40:04.675Z,98902.78
2022-09-16T01:42:39.077Z,98901.22
2022-09-16T01:45:16.680Z,98897.94
2022-09-16T01:47:54.711Z,98898.31
2022-09-16T01:50:33.219Z,98902.44
2022-09-16T01:53:03.862Z,98896.87
2022-09-16T01:55:53.875Z,98899.84
2022-09-16T01:58:36.967Z,98905.75
2022-09-16T02:01:10.272Z,98896.56
2022-09-16T02:03:41.186Z,98895.34
2022-09-16T02:06:12.574Z,98899.59
2022-09-16T02:08:44.967Z,98903.75
2022-09-16T02:11:16.788Z,98904.91
2022-09-16T02:14:00.638Z,98915.97
2022-09-16T02:16:35.315Z,98909.72
2022-09-16T02:19:06.786Z,98913.78
2022-09-16T02:21:36.563Z,98910.87
2022-09-16T02:24:08.231Z,98919.69
2022-09-16T02:26:45.056Z,98923.03
2022-09-16T02:29:17.581Z,98925.94
2022-09-16T02:31:46.287Z,98925.34
2022-09-16T02:34:22.542Z,98934.13
2022-09-16T02:36:56.056Z,98939.44
2022-09-16T02:39:29.493Z,98935.97
2022-09-16T02:41:57.498Z,98936.44
2022-09-16T02:44:25.776Z,98940.72
2022-09-16T02:47:22.358Z,98942.19
2022-09-16T02:49:55.909Z,98946.66
2022-09-16T02:52:46.781Z,98942.78
2022-09-16T02:55:14.719Z,98943.31
2022-09-16T02:57:42.396Z,98939.53
2022-09-16T03:00:10.388Z,98947.03
2022-09-16T03:02:38.385Z,98949.50
2022-09-16T03:05:06.725Z,98945.53
2022-09-16T03:07:41.953Z,98939.66
2022-09-16T03:10:15.578Z,98952.88
2022-09-16T03:12:56.569Z,98947.03
2022-09-16T03:15:43.847Z,98944.09
2022-09-16T03:18:49.927Z,98946.03
2022-09-16T03:21:33.804Z,98947.19
2022-09-16T03:24:04.620Z,98960.09
2022-09-16T03:26:41.973Z,98960.03
2022-09-16T03:29:30.047Z,98962.53
2022-09-16T03:32:17.719Z,98955.84
2022-09-16T03:35:00.487Z,98951.97
2022-09-16T03:37:34.831Z,98947.91
2022-09-16T03:40:09.297Z,98955.47
2022-09-16T03:42:43.154Z,98961.41
2022-09-16T03:45:17.319Z,98974.59
2022-09-16T03:47:46.667Z,98965.69
2022-09-16T03:50:20.690Z,98971.75
2022-09-16T03:52:50.524Z,98963.75
2022-09-16T03:55:19.327Z,98968.84
2022-09-16T03:57:47.635Z,98957.16
2022-09-16T04:00:16.507Z,98968.28
2022-09-16T04:02:48.166Z,98968.59
2022-09-16T04:05:17.091Z,98968.94
2022-09-16T04:07:48.983Z,98969.47
2022-09-16T04:10:18.195Z,98978.13
2022-09-16T04:12:47.224Z,98974.47
2022-09-16T04:15:18.817Z,98969.00
2022-09-16T04:17:56.835Z,98960.22
2022-09-16T04:20:28.416Z,98961.59
2022-09-16T04:22:56.865Z,98955.41
2022-09-16T04:25:24.678Z,98977.16
2022-09-16T04:27:53.277Z,98974.28
2022-09-16T04:30:21.937Z,98978.28
2022-09-16T04:32:54.582Z,98975.81
2022-09-16T04:35:23.698Z,98975.38
2022-09-16T04:37:55.559Z,98977.88
2022-09-16T04:40:23.857Z,98973.03
2022-09-16T04:42:53.133Z,98972.87
2022-09-16T04:45:22.349Z,98989.34
2022-09-16T04:47:58.057Z,98980.13
2022-09-16T04:50:33.818Z,98969.97
2022-09-16T04:53:02.809Z,98975.13
2022-09-16T04:55:32.845Z,98976.38
2022-09-16T04:58:06.214Z,98983.53
2022-09-16T05:00:35.346Z,98993.66
2022-09-16T05:03:05.488Z,98993.59
2022-09-16T05:05:36.978Z,98976.09
2022-09-16T05:08:07.012Z,98971.31
2022-09-16T05:10:48.783Z,98980.34
2022-09-16T05:13:19.807Z,98981.59
2022-09-16T05:15:51.213Z,98991.12
2022-09-16T05:18:20.002Z,98995.19
2022-09-16T05:21:00.207Z,98995.69
2022-09-16T05:23:29.199Z,99000.03
2022-09-16T05:26:08.118Z,99003.34
2022-09-16T05:28:36.574Z,99003.16
2022-09-16T05:31:16.217Z,99006.31
2022-09-16T05:34:05.407Z,99005.97
2022-09-16T05:36:36.439Z,99013.72
2022-09-16T05:39:22.259Z,99014.31
2022-09-16T05:41:54.893Z,99013.72
2022-09-16T05:44:22.834Z,99017.03
2022-09-16T05:46:52.430Z,99017.69
2022-09-16T05:49:21.926Z,99016.13
2022-09-16T05:52:07.417Z,99007.75
2022-09-16T05:54:39.102Z,98998.28
2022-09-16T05:57:07.748Z,98998.88
2022-09-16T05:59:35.703Z,99003.72
2022-09-16T06:02:04.472Z,99005.91
2022-09-16T06:04:50.478Z,99006.09
2022-09-16T06:07:18.586Z,99008.91
2022-09-16T06:09:47.384Z,99014.41
2022-09-16T06:12:15.573Z,99012.06
2022-09-16T06:14:43.539Z,99016.34
2022-09-16T06:17:11.874Z,99018.97
2022-09-16T06:19:41.901Z,99007.97
2022-09-16T06:22:13.580Z,99011.22
2022-09-16T06:24:42.768Z,99013.81
2022-09-16T06:27:13.172Z,99005.41
2022-09-16T06:29:41.524Z,99004.78
2022-09-16T06:32:09.664Z,99006.69
2022-09-16T06:34:37.552Z,99005.28
2022-09-16T06:37:06.787Z,99002.19
2022-09-16T06:39:43.309Z,99003.22
2022-09-16T06:42:12.544Z,99012.41
2022-09-16T06:44:41.905Z,99008.09
2022-09-16T06:47:10.159Z,99003.16
2022-09-16T06:49:38.692Z,99004.03
2022-09-16T06:52:06.679Z,99015.22
2022-09-16T06:54:36.531Z,99013.22
2022-09-16T06:57:06.574Z,99014.19
2022-09-16T06:59:41.489Z,99007.56
2022-09-16T07:02:11.127Z,99018.87
2022-09-16T07:04:41.766Z,99013.94
2022-09-16T07:07:10.549Z,99021.25
2022-09-16T07:09:43.384Z,99020.66
2022-09-16T07:12:19.858Z,99029.66
2022-09-16T07:14:48.447Z,99022.38
2022-09-16T07:17:32.634Z,99023.34
2022-09-16T07:20:02.281Z,99036.09
2022-09-16T07:22:38.348Z,99036.22
2022-09-16T07:25:14.376Z,99043.41
2022-09-16T07:27:44.073Z,99036.88
2022-09-16T07:30:18.162Z,99035.97
2022-09-16T07:32:51.731Z,99046.56
2022-09-16T07:35:28.459Z,99046.84
2022-09-16T07:38:01.963Z,99040.03
2022-09-16T07:40:31.605Z,99044.38
2022-09-16T07:43:07.032Z,99058.09
2022-09-16T07:45:36.353Z,99055.41
2022-09-16T07:48:11.159Z,99063.00
2022-09-16T07:50:53.848Z,99054.47
2022-09-16T07:53:29.584Z,99070.28
2022-09-16T07:56:23.300Z,99064.00
2022-09-16T07:58:54.755Z,99068.97
2022-09-16T08:01:27.934Z,99055.06
2022-09-16T08:03:57.353Z,99068.16
2022-09-16T08:06:32.679Z,99067.44
2022-09-16T08:09:27.278Z,99063.03
2022-09-16T08:12:00.167Z,99075.41
2022-09-16T08:14:28.563Z,99076.78
2022-09-16T08:17:08.444Z,99075.47
2022-09-16T08:19:42.331Z,99072.38
2022-09-16T08:22:12.280Z,99067.62
2022-09-16T08:25:00.624Z,99068.31
2022-09-16T08:27:38.576Z,99068.66
2022-09-16T08:30:12.215Z,99062.50
2022-09-16T08:32:41.822Z,99069.50
2022-09-16T08:35:18.290Z,99066.75
2022-09-16T08:37:50.128Z,99060.59
2022-09-16T08:43:10.999Z,99073.47
2022-09-16T08:46:10.511Z,99080.09
2022-09-16T08:49:04.051Z,99078.75
2022-09-16T08:51:43.901Z,99060.41
2022-09-16T08:54:26.031Z,99059.47
2022-09-16T08:57:05.678Z,99068.91
2022-09-16T08:59:37.859Z,99083.44
2022-09-16T09:02:26.339Z,99095.25
2022-09-16T09:04:57.200Z,99089.38
2022-09-16T09:07:56.621Z,99086.78
2022-09-16T09:10:32.084Z,99087.13
2022-09-16T09:13:46.728Z,99088.72
2022-09-16T09:16:20.714Z,99080.69
2022-09-16T09:18:58.899Z,99065.78
2022-09-16T09:21:45.938Z,99066.72
2022-09-16T09:24:42.610Z,99056.22
2022-09-16T09:27:31.477Z,99054.22
2022-09-16T09:30:24.137Z,99061.44
2022-09-16T09:33:44.484Z,99068.69
2022-09-16T09:36:19.107Z,99065.66
2022-09-16T09:39:16.998Z,99073.09
2022-09-16T09:42:03.728Z,99064.97
2022-09-16T09:45:01.493Z,99070.13
2022-09-16T09:47:43.089Z,99072.16
2022-09-16T09:50:19.472Z,99066.69
2022-09-16T09:52:55.078Z,99064.28
2022-09-16T09:55:25.986Z,99065.94
2022-09-16T09:58:35.272Z,99054.78
2022-09-16T10:01:04.353Z,99045.69
2022-09-16T10:03:34.018Z,99035.34
2022-09-16T10:06:03.319Z,99040.69
2022-09-16T10:08:38.601Z,99046.75
2022-09-16T10:11:22.800Z,99047.63
2022-09-16T10:13:58.176Z,99055.87
2022-09-16T10:16:31.865Z,99053.94
2022-09-16T10:19:21.470Z,99055.53
2022-09-16T10:22:12.347Z,99046.72
2022-09-16T10:24:55.102Z,99046.00
2022-09-16T10:27:39.026Z,99050.13
2022-09-16T10:30:15.746Z,99054.63
2022-09-16T10:32:58.680Z,99050.09
2022-09-16T10:35:33.808Z,99048.63
2022-09-16T10:38:10.809Z,99048.22
2022-09-16T10:44:26.016Z,99045.63
2022-09-16T10:53:45.838Z,99047.94
2022-09-16T10:56:26.542Z,99057.31
2022-09-16T10:59:07.697Z,99058.97
2022-09-16T11:01:46.148Z,99061.69
2022-09-16T11:04:42.234Z,99067.59
2022-09-16T11:07:41.923Z,99063.34
2022-09-16T11:10:39.437Z,99069.59
2022-09-16T11:13:18.922Z,99066.28
2022-09-16T11:16:11.038Z,99064.72
2022-09-16T11:19:09.363Z,99048.63
2022-09-16T11:22:15.544Z,99058.53
2022-09-16T11:25:17.167Z,99051.69
2022-09-16T11:28:14.723Z,99038.38
2022-09-16T11:30:57.055Z,99024.19
2022-09-16T11:34:05.242Z,99030.34
2022-09-16T11:36:46.931Z,99032.56
2022-09-16T11:39:39.672Z,99028.34
2022-09-16T11:42:25.291Z,99018.63
2022-09-16T11:45:02.486Z,99026.37
2022-09-16T11:48:08.528Z,99025.69
2022-09-16T11:51:17.288Z,99018.37
2022-09-16T11:54:01.918Z,99016.66
2022-09-16T11:56:50.136Z,99005.25
2022-09-16T11:59:41.618Z,99017.53
2022-09-16T12:02:24.067Z,99014.16
2022-09-16T12:05:27.789Z,99011.72
2022-09-16T12:08:23.211Z,99006.91
2022-09-16T12:11:16.150Z,99005.88
2022-09-16T12:13:53.886Z,99004.31
2022-09-16T12:16:52.473Z,99006.50
2022-09-16T12:20:14.167Z,99008.75
2022-09-16T12:23:11.439Z,99003.37
2022-09-16T12:26:11.908Z,98995.97
2022-09-16T12:28:47.154Z,98989.81
2022-09-16T12:31:47.918Z,99003.47
2022-09-16T12:34:30.226Z,99001.16
2022-09-16T12:37:47.808Z,99003.31
2022-09-16T12:40:20.654Z,98999.22
2022-09-16T12:43:22.757Z,98990.81
2022-09-16T12:46:29.336Z,98987.72
2022-09-16T12:49:00.358Z,98985.84
2022-09-16T12:51:50.639Z,98974.81
2022-09-16T12:55:04.018Z,98977.97
2022-09-16T12:58:36.481Z,98971.75
2022-09-16T13:01:34.916Z,98967.66
2022-09-16T13:04:15.532Z,98965.28
2022-09-16T13:07:06.236Z,98963.25
2022-09-16T13:09:46.969Z,98958.38
2022-09-16T13:15:25.192Z,98964.63
2022-09-16T13:17:57.486Z,98963.25
2022-09-16T13:20:34.199Z,98958.50
2022-09-16T13:23:21.104Z,98958.97
2022-09-16T13:25:59.417Z,98962.75
2022-09-16T13:28:36.888Z,98967.16
2022-09-16T13:31:34.351Z,98957.75
2022-09-16T13:34:16.726Z,98951.91
2022-09-16T13:36:52.214Z,98957.72
2022-09-16T13:39:35.533Z,98954.59
2022-09-16T13:42:19.038Z,98952.50
2022-09-16T13:44:47.493Z,98955.59
2022-09-16T13:47:40.679Z,98947.25
2022-09-16T13:50:32.139Z,98943.69
2022-09-16T13:53:36.333Z,98936.63
2022-09-16T13:56:38.048Z,98934.03
2022-09-16T13:59:49.347Z,98925.06
2022-09-16T14:03:03.508Z,98932.59
2022-09-16T14:05:59.909Z,98916.50
2022-09-16T14:08:51.891Z,98924.72
2022-09-16T14:11:59.456Z,98922.22
2022-09-16T14:14:50.106Z,98910.47
2022-09-16T14:17:28.027Z,98920.38
2022-09-16T14:20:04.537Z,98911.63
2022-09-16T14:22:38.607Z,98916.13
2022-09-16T14:25:45.719Z,98910.44
2022-09-16T14:28:25.107Z,98916.66
2022-09-16T14:31:06.071Z,98910.31
2022-09-16T14:33:47.356Z,98911.00
2022-09-16T14:36:35.002Z,98920.22
2022-09-16T14:39:29.542Z,98931.19
2022-09-16T14:42:03.743Z,98924.28
2022-09-16T14:44:54.697Z,98916.13
2022-09-16T14:47:51.677Z,98901.59
2022-09-16T14:50:35.800Z,98893.66
2022-09-16T14:53:22.397Z,98893.31
2022-09-16T14:58:30.308Z,98895.28
2022-09-16T15:01:31.964Z,98893.09
2022-09-16T15:04:19.930Z,98882.28
2022-09-16T15:07:12.570Z,98882.03
2022-09-16T15:10:05.653Z,98881.25
2022-09-16T15:13:10.762Z,98896.50
2022-09-16T15:15:52.701Z,98887.03
2022-09-16T15:18:37.770Z,98895.56
2022-09-16T15:21:32.174Z,98903.97
2022-09-16T15:24:39.351Z,98905.72
2022-09-16T15:27:30.386Z,98885.88
2022-09-16T15:30:32.877Z,98898.19
2022-09-16T15:33:31.190Z,98908.25
2022-09-16T15:36:04.827Z,98896.69
2022-09-16T15:38:44.185Z,98905.81
2022-09-16T15:41:16.817Z,98911.22
2022-09-16T15:43:46.867Z,98916.34
2022-09-16T15:46:22.426Z,98919.06
2022-09-16T15:49:02.317Z,98913.66
2022-09-16T15:51:44.839Z,98916.75
2022-09-16T15:57:49.200Z,98920.69
2022-09-16T16:00:54.486Z,98909.06
2022-09-16T16:03:31.941Z,98896.78
2022-09-16T16:06:00.723Z,98900.03
2022-09-16T16:08:40.778Z,98894.16
2022-09-16T16:11:20.383Z,98896.47
2022-09-16T16:13:53.313Z,98892.53
2022-09-16T16:16:29.122Z,98888.75
2022-09-16T16:18:59.784Z,98879.47
2022-09-16T16:21:31.586Z,98880.63
2022-09-16T16:24:02.631Z,98882.25
2022-09-16T16:26:41.699Z,98880.41
2022-09-16T16:29:11.156Z,98884.00
2022-09-16T16:31:41.364Z,98882.03
2022-09-16T16:34:09.632Z,98877.34
2022-09-16T16:36:39.954Z,98869.22
2022-09-16T16:39:13.553Z,98859.69
2022-09-16T16:41:44.383Z,98859.50
2022-09-16T16:44:18.341Z,98857.91
2022-09-16T16:47:15.416Z,98854.72
2022-09-16T16:49:48.375Z,98874.44
2022-09-16T16:52:19.829Z,98870.00
2022-09-16T16:54:52.394Z,98862.25
2022-09-16T16:57:22.859Z,98866.91
2022-09-16T16:59:56.952Z,98860.56
2022-09-16T17:02:26.561Z,98852.91
2022-09-16T17:05:00.484Z,98862.91
2022-09-16T17:07:30.031Z,98862.97
2022-09-16T17:10:04.261Z,98855.22
2022-09-16T17:12:33.083Z,98869.47
2022-09-16T17:15:01.611Z,98856.88
2022-09-16T17:17:31.783Z,98857.41
2022-09-16T17:20:00.990Z,98856.56
2022-09-16T17:22:29.325Z,98849.47
2022-09-16T17:24:57.474Z,98838.53
2022-09-16T17:27:27.972Z,98841.66
2022-09-16T17:29:56.818Z,98850.63
2022-09-16T17:32:25.571Z,98853.25
2022-09-16T17:34:56.423Z,98846.72
2022-09-16T17:37:24.887Z,98853.78
2022-09-16T17:39:53.152Z,98835.50
2022-09-16T17:42:20.700Z,98853.06
2022-09-16T17:44:48.555Z,98867.03
2022-09-16T17:47:20.614Z,98867.75
2022-09-16T17:49:52.973Z,98869.47
2022-09-16T17:52:21.669Z,98875.00
2022-09-16T17:54:53.060Z,98866.03
2022-09-16T17:57:22.975Z,98876.16
2022-09-16T17:59:52.952Z,98865.37
2022-09-16T18:02:22.604Z,98858.09
2022-09-16T18:05:08.904Z,98861.00
2022-09-16T18:11:12.835Z,98864.75
2022-09-16T18:13:44.240Z,98863.38
2022-09-16T18:16:19.823Z,98852.25
2022-09-16T18:18:55.145Z,98856.47
2022-09-16T18:21:26.946Z,98863.16
2022-09-16T18:23:57.287Z,98873.47
2022-09-16T18:26:33.199Z,98885.94
2022-09-16T18:29:10.064Z,98878.16
2022-09-16T18:31:52.044Z,98886.19
2022-09-16T18:34:24.969Z,98891.47
2022-09-16T18:36:55.438Z,98886.91
2022-09-16T18:39:27.479Z,98886.88
2022-09-16T18:42:07.432Z,98881.91
2022-09-16T18:44:37.226Z,98875.72
2022-09-16T18:47:09.718Z,98868.28
2022-09-16T18:49:47.138Z,98855.66
2022-09-16T18:52:15.605Z,98857.13
2022-09-16T18:54:53.365Z,98858.78
2022-09-16T18:57:24.207Z,98857.66
2022-09-16T19:00:00.464Z,98864.19
2022-09-16T19:02:30.615Z,98867.09
2022-09-16T19:05:03.460Z,98869.94
2022-09-16T19:07:33.854Z,98853.22
2022-09-16T19:10:03.638Z,98851.13
2022-09-16T19:12:37.092Z,98846.25
2022-09-16T19:15:08.604Z,98837.47
2022-09-16T19:17:42.411Z,98840.03
2022-09-16T19:20:15.887Z,98860.47
2022-09-16T19:22:45.606Z,98877.50
2022-09-16T19:25:21.042Z,98874.16
2022-09-16T19:27:55.769Z,98871.38
2022-09-16T19:30:38.588Z,98865.87
2022-09-16T19:33:08.616Z,98867.72
2022-09-16T19:35:38.167Z,98868.00
2022-09-16T19:38:06.497Z,98854.34
2022-09-16T19:40:42.503Z,98856.16
2022-09-16T19:43:12.398Z,98854.34
2022-09-16T19:45:43.260Z,98854.19
2022-09-16T19:48:24.301Z,98860.50
2022-09-16T19:51:33.192Z,98857.97
2022-09-16T19:54:24.434Z,98860.16
2022-09-16T19:57:08.028Z,98866.81
2022-09-16T19:59:36.628Z,98856.34
2022-09-16T20:02:09.857Z,98862.34
2022-09-16T20:04:58.935Z,98870.41
2022-09-16T20:07:28.440Z,98861.94
2022-09-16T20:10:22.522Z,98870.00
2022-09-16T20:12:57.327Z,98875.81
2022-09-16T20:15:28.503Z,98873.72
2022-09-16T20:18:04.945Z,98872.91
2022-09-16T20:21:10.150Z,98870.00
2022-09-16T20:24:15.822Z,98851.19
2022-09-16T20:26:54.149Z,98861.94
2022-09-16T20:29:22.426Z,98867.03
2022-09-16T20:31:54.917Z,98871.75
2022-09-16T20:34:29.649Z,98870.63
2022-09-16T20:37:00.146Z,98868.13
2022-09-16T20:39:56.787Z,98868.06
2022-09-16T20:42:29.582Z,98873.09
2022-09-16T20:45:01.926Z,98881.16
2022-09-16T20:47:45.102Z,98887.97
2022-09-16T20:50:17.532Z,98894.19
2022-09-16T20:52:49.080Z,98896.50
2022-09-16T20:55:20.610Z,98903.69
2022-09-16T20:57:52.454Z,98910.03
2022-09-16T21:00:34.846Z,98909.66
2022-09-16T21:03:05.066Z,98915.81
2022-09-16T21:05:32.740Z,98904.75
2022-09-16T21:08:05.006Z,98915.47
2022-09-16T21:10:48.033Z,98911.28
2022-09-16T21:13:25.316Z,98905.09
2022-09-16T21:15:57.932Z,98902.91
2022-09-16T21:18:46.359Z,98905.66
2022-09-16T21:21:19.890Z,98907.56
2022-09-16T21:23:50.311Z,98911.09
2022-09-16T21:26:26.762Z,98913.13
2022-09-16T21:29:02.824Z,98922.53
2022-09-16T21:31:56.532Z,98926.87
2022-09-16T21:34:25.269Z,98933.50
2022-09-16T21:36:53.877Z,98931.41
2022-09-16T21:39:31.400Z,98938.25
2022-09-16T21:42:09.542Z,98932.03
2022-09-16T21:44:37.931Z,98923.53
2022-09-16T21:47:11.649Z,98930.38
2022-09-16T21:49:40.740Z,98932.41
2022-09-16T21:52:34.724Z,98931.63
2022-09-16T21:55:12.061Z,98933.25
2022-09-16T21:58:01.694Z,98929.19
2022-09-16T22:00:34.810Z,98930.28
2022-09-16T22:03:05.873Z,98931.53
2022-09-16T22:05:54.144Z,98933.19
2022-09-16T22:08:22.908Z,98938.09
2022-09-16T22:10:51.219Z,98947.22
2022-09-16T22:13:22.082Z,98949.19
2022-09-16T22:15:57.675Z,98962.44
2022-09-16T22:18:32.903Z,98956.84
2022-09-16T22:21:10.263Z,98967.62
2022-09-16T22:23:43.135Z,98962.03
2022-09-16T22:26:13.483Z,98972.37
2022-09-16T22:28:42.474Z,98983.31
2022-09-16T22:31:12.958Z,98984.53
2022-09-16T22:33:47.387Z,98984.16
2022-09-16T22:36:26.575Z,98980.66
2022-09-16T22:39:01.634Z,98979.00
2022-09-16T22:41:30.507Z,98985.75
2022-09-16T22:43:59.006Z,98988.09
2022-09-16T22:46:37.289Z,98990.56
2022-09-16T22:49:09.506Z,98994.91
2022-09-16T22:51:47.974Z,98996.50
2022-09-16T22:54:20.101Z,98999.44
2022-09-16T22:56:48.138Z,98990.75
2022-09-16T22:59:18.878Z,98990.06
2022-09-16T23:01:50.063Z,98982.88
2022-09-16T23:04:18.355Z,98987.47
2022-09-16T23:06:46.834Z,98984.81
2022-09-16T23:09:20.624Z,98992.41
2022-09-16T23:11:48.205Z,98979.81
2022-09-16T23:14:22.080Z,98989.56
2022-09-16T23:16:51.565Z,98970.50
2022-09-16T23:19:20.471Z,98968.16
2022-09-16T23:21:49.983Z,98969.22
2022-09-16T23:24:20.323Z,98969.69
2022-09-16T23:26:49.126Z,98965.34
2022-09-16T23:29:18.516Z,98951.06
2022-09-16T23:31:48.337Z,98953.75
2022-09-16T23:34:19.700Z,98952.75
2022-09-16T23:36:51.119Z,98949.44
2022-09-16T23:39:19.025Z,98932.88
2022-09-16T23:41:47.293Z,98927.37
2022-09-16T23:44:19.620Z,98926.81
2022-09-16T23:46:52.972Z,98922.44
2022-09-16T23:49:27.520Z,98911.59
2022-09-16T23:51:55.219Z,98915.34
2022-09-16T23:54:23.711Z,98907.81
2022-09-16T23:56:56.026Z,98903.34
2022-09-16T23:59:24.210Z,98913.09
